Time;durP1;ratioP1;P1;durP2;ratioP2;P2;SDS_P1;SDS_P2;PMS_P1;PMS_P2;Temp;Humidity;BMP_temperature;BMP_pressure;BME280_temperature;BME280_humidity;BME280_pressure;Samples;Min_cycle;Max_cycle;Signal;HPM_P1;HPM_P2
2021/06/12 00:00:38;;;;;;;12.00;8.05;;;;;;;;;;4933856;29;20024;-69
2021/06/12 00:03:05;;;;;;;8.70;7.47;;;;;;;;;;4931349;29;20547;-71
2021/06/12 00:05:31;;;;;;;11.60;7.55;;;;;;;;;;4933513;29;20047;-68
2021/06/12 00:07:57;;;;;;;10.05;8.30;;;;;;;;;;4933757;29;20091;-67
2021/06/12 00:10:25;;;;;;;11.05;8.07;;;;;;;;;;4933775;29;20031;-67
2021/06/12 00:12:51;;;;;;;11.52;8.45;;;;;;;;;;4933691;29;20110;-71
2021/06/12 00:15:19;;;;;;;12.77;8.23;;;;;;;;;;4933806;29;20063;-67
2021/06/12 00:17:48;;;;;;;13.52;8.05;;;;;;;;;;4933746;29;20067;-68
2021/06/12 00:20:15;;;;;;;10.05;8.32;;;;;;;;;;4933608;29;20063;-69
2021/06/12 00:22:45;;;;;;;8.90;7.78;;;;;;;;;;4933695;29;20071;-66
2021/06/12 00:25:14;;;;;;;8.60;7.57;;;;;;;;;;4933821;29;20027;-68
2021/06/12 00:27:41;;;;;;;11.55;8.75;;;;;;;;;;4933512;29;20456;-67
2021/06/12 00:30:08;;;;;;;10.55;8.38;;;;;;;;;;4933655;29;20028;-67
2021/06/12 00:32:34;;;;;;;8.85;7.80;;;;;;;;;;4933771;29;20051;-71
2021/06/12 00:35:00;;;;;;;11.02;8.23;;;;;;;;;;4933850;29;20039;-67
2021/06/12 00:37:26;;;;;;;11.45;8.50;;;;;;;;;;4933701;29;20123;-67
2021/06/12 00:39:53;;;;;;;10.23;8.10;;;;;;;;;;4933536;29;20040;-67
2021/06/12 00:42:21;;;;;;;10.27;8.20;;;;;;;;;;4933454;29;20123;-66
2021/06/12 00:44:47;;;;;;;12.55;8.07;;;;;;;;;;4933597;29;20028;-67
2021/06/12 00:47:13;;;;;;;9.75;7.72;;;;;;;;;;4933717;29;20032;-68
2021/06/12 00:49:40;;;;;;;12.05;8.70;;;;;;;;;;4933504;29;20468;-71
2021/06/12 00:52:06;;;;;;;10.30;7.40;;;;;;;;;;4933344;29;20032;-71
2021/06/12 00:54:32;;;;;;;8.77;7.60;;;;;;;;;;4933493;29;20039;-67
2021/06/12 00:56:58;;;;;;;11.80;7.70;;;;;;;;;;4933592;29;20496;-67
2021/06/12 00:59:27;;;;;;;10.38;7.90;;;;;;;;;;4933123;29;20083;-67
2021/06/12 01:01:53;;;;;;;13.50;8.52;;;;;;;;;;4935017;29;20035;-67
2021/06/12 01:04:19;;;;;;;9.35;7.70;;;;;;;;;;4919831;29;20043;-67
2021/06/12 01:06:49;;;;;;;12.23;7.97;;;;;;;;;;4936577;29;20130;-68
2021/06/12 01:09:15;;;;;;;9.45;7.72;;;;;;;;;;4936810;29;20031;-69
2021/06/12 01:11:45;;;;;;;9.40;7.78;;;;;;;;;;4936833;29;20032;-67
2021/06/12 01:14:14;;;;;;;10.88;7.88;;;;;;;;;;4936615;29;20039;-67
2021/06/12 01:16:51;;;;;;;11.68;7.75;;;;;;;;;;4936713;29;20487;-68
2021/06/12 01:19:36;;;;;;;11.35;7.88;;;;;;;;;;4936501;29;20130;-69
2021/06/12 01:22:03;;;;;;;10.48;7.80;;;;;;;;;;4936641;29;20051;-68
2021/06/12 01:24:42;;;;;;;10.57;7.70;;;;;;;;;;4936651;29;20088;-70
2021/06/12 01:27:44;;;;;;;11.50;8.02;;;;;;;;;;4936634;29;20039;-67
2021/06/12 01:30:23;;;;;;;10.15;7.60;;;;;;;;;;4877409;29;20081;-68
2021/06/12 01:32:55;;;;;;;11.15;7.75;;;;;;;;;;4877636;29;20513;-70
2021/06/12 01:35:21;;;;;;;12.73;8.15;;;;;;;;;;4877374;29;20049;-67
2021/06/12 01:37:48;;;;;;;10.82;7.57;;;;;;;;;;4877432;29;20113;-68
2021/06/12 01:40:14;;;;;;;11.13;7.97;;;;;;;;;;4877502;29;20107;-67
2021/06/12 01:42:43;;;;;;;11.38;8.07;;;;;;;;;;4877423;29;20041;-68
2021/06/12 01:45:09;;;;;;;12.68;8.38;;;;;;;;;;4877387;29;20045;-68
2021/06/12 01:47:35;;;;;;;10.20;8.75;;;;;;;;;;4877437;29;20131;-70
2021/06/12 01:50:02;;;;;;;10.95;8.25;;;;;;;;;;4877194;29;20033;-69
2021/06/12 01:52:29;;;;;;;14.52;8.40;;;;;;;;;;4877300;29;20029;-68
2021/06/12 01:54:56;;;;;;;10.18;8.95;;;;;;;;;;4877027;29;20037;-67
2021/06/12 01:57:22;;;;;;;13.07;9.13;;;;;;;;;;4877199;29;20052;-66
2021/06/12 01:59:50;;;;;;;12.45;8.93;;;;;;;;;;4875377;29;20033;-67
2021/06/12 02:02:16;;;;;;;8.77;7.72;;;;;;;;;;4875598;29;20052;-66
2021/06/12 02:04:43;;;;;;;11.73;8.23;;;;;;;;;;4917364;29;20456;-65
2021/06/12 02:07:09;;;;;;;14.75;8.73;;;;;;;;;;4931281;29;20669;-72
2021/06/12 02:09:37;;;;;;;10.77;8.30;;;;;;;;;;4935708;29;20028;-67
2021/06/12 02:12:06;;;;;;;12.15;8.32;;;;;;;;;;4935639;29;20399;-68
2021/06/12 02:14:33;;;;;;;11.55;7.90;;;;;;;;;;4934639;29;20078;-67
2021/06/12 02:17:00;;;;;;;12.65;8.18;;;;;;;;;;4918485;29;20542;-71
2021/06/12 02:19:27;;;;;;;13.52;8.38;;;;;;;;;;4935422;29;20028;-69
2021/06/12 02:21:53;;;;;;;9.60;7.85;;;;;;;;;;4935332;29;20114;-70
2021/06/12 02:24:20;;;;;;;11.85;8.23;;;;;;;;;;4935334;29;20508;-68
2021/06/12 02:26:47;;;;;;;12.32;7.75;;;;;;;;;;4935510;29;20028;-68
2021/06/12 02:29:15;;;;;;;10.18;7.32;;;;;;;;;;4935170;29;20024;-67
2021/06/12 02:31:44;;;;;;;13.10;7.50;;;;;;;;;;4935410;29;20029;-72
2021/06/12 02:34:10;;;;;;;12.13;7.57;;;;;;;;;;4935004;29;20115;-72
2021/06/12 02:36:36;;;;;;;9.98;7.03;;;;;;;;;;4935427;29;20036;-68
2021/06/12 02:39:04;;;;;;;11.68;7.40;;;;;;;;;;4934963;29;20031;-67
2021/06/12 02:41:30;;;;;;;9.00;7.53;;;;;;;;;;4935063;29;20039;-71
2021/06/12 02:43:56;;;;;;;12.05;7.60;;;;;;;;;;4935330;29;20280;-67
2021/06/12 02:46:24;;;;;;;9.13;6.90;;;;;;;;;;4935184;29;20119;-66
2021/06/12 02:48:52;;;;;;;9.48;7.15;;;;;;;;;;4934928;29;20027;-70
2021/06/12 02:51:18;;;;;;;12.43;6.90;;;;;;;;;;4934914;29;20106;-65
2021/06/12 02:53:45;;;;;;;9.93;7.40;;;;;;;;;;4934827;29;20111;-70
2021/06/12 02:56:11;;;;;;;12.15;7.53;;;;;;;;;;4935101;29;20036;-70
2021/06/12 02:58:39;;;;;;;7.80;6.63;;;;;;;;;;4934596;29;20446;-66
2021/06/12 03:01:06;;;;;;;8.10;6.53;;;;;;;;;;4934940;29;20028;-66
2021/06/12 03:03:33;;;;;;;8.02;7.18;;;;;;;;;;4934806;29;20035;-67
2021/06/12 03:06:00;;;;;;;11.05;6.95;;;;;;;;;;4934438;29;20052;-70
2021/06/12 03:08:37;;;;;;;10.65;7.20;;;;;;;;;;4931727;29;20035;-66
2021/06/12 03:11:04;;;;;;;10.63;6.75;;;;;;;;;;4929751;29;20028;-69
2021/06/12 03:13:32;;;;;;;8.23;6.70;;;;;;;;;;4930883;29;20035;-70
2021/06/12 03:16:02;;;;;;;10.27;6.60;;;;;;;;;;4930608;29;20053;-70
2021/06/12 03:18:29;;;;;;;8.07;6.85;;;;;;;;;;4932016;29;20028;-67
2021/06/12 03:20:58;;;;;;;8.30;6.47;;;;;;;;;;4917202;29;20050;-71
2021/06/12 03:23:26;;;;;;;10.52;6.60;;;;;;;;;;4934272;29;20493;-67
2021/06/12 03:25:52;;;;;;;9.85;6.28;;;;;;;;;;4933717;29;20039;-67
2021/06/12 03:28:18;;;;;;;9.25;6.22;;;;;;;;;;4917128;29;20024;-73
2021/06/12 03:30:45;;;;;;;9.07;6.68;;;;;;;;;;4934002;29;20563;-74
2021/06/12 03:33:11;;;;;;;8.60;6.43;;;;;;;;;;4934262;29;20028;-74
2021/06/12 03:35:37;;;;;;;11.32;6.80;;;;;;;;;;4934189;29;20155;-75
2021/06/12 03:38:04;;;;;;;7.07;6.38;;;;;;;;;;4931329;29;20019;-75
2021/06/12 03:40:30;;;;;;;10.23;7.07;;;;;;;;;;4930141;29;20122;-74
2021/06/12 03:42:57;;;;;;;10.60;6.75;;;;;;;;;;4929634;29;20082;-75
2021/06/12 03:45:24;;;;;;;9.77;6.35;;;;;;;;;;4930709;29;20058;-75
2021/06/12 03:47:50;;;;;;;8.80;6.22;;;;;;;;;;4931709;29;20024;-75
2021/06/12 03:50:17;;;;;;;9.88;6.32;;;;;;;;;;4933582;29;20019;-74
2021/06/12 03:52:43;;;;;;;7.90;6.15;;;;;;;;;;4933924;29;20027;-74
2021/06/12 03:55:11;;;;;;;8.63;6.35;;;;;;;;;;4933922;29;20027;-74
2021/06/12 03:57:37;;;;;;;8.82;6.07;;;;;;;;;;4933864;29;20043;-74
2021/06/12 04:00:06;;;;;;;8.30;6.28;;;;;;;;;;4933802;29;20045;-74
2021/06/12 04:02:32;;;;;;;8.77;5.57;;;;;;;;;;4933737;29;20108;-74
2021/06/12 04:04:58;;;;;;;7.07;5.85;;;;;;;;;;4933724;29;20396;-74
2021/06/12 04:07:25;;;;;;;10.88;5.80;;;;;;;;;;4933746;29;20496;-74
2021/06/12 04:09:51;;;;;;;9.20;5.80;;;;;;;;;;4933667;29;20028;-74
2021/06/12 04:12:17;;;;;;;6.05;5.05;;;;;;;;;;4933738;29;20514;-73
2021/06/12 04:14:43;;;;;;;8.35;5.50;;;;;;;;;;4933742;29;20032;-73
2021/06/12 04:17:09;;;;;;;6.70;4.80;;;;;;;;;;4933746;29;20086;-73
2021/06/12 04:19:38;;;;;;;7.00;4.57;;;;;;;;;;4933277;29;20051;-72
2021/06/12 04:22:04;;;;;;;7.45;4.60;;;;;;;;;;4933783;29;20090;-72
2021/06/12 04:24:30;;;;;;;5.88;4.43;;;;;;;;;;4933848;29;20034;-72
2021/06/12 04:26:56;;;;;;;5.65;4.30;;;;;;;;;;4933514;29;20106;-71
2021/06/12 04:29:22;;;;;;;9.18;6.28;;;;;;;;;;4933392;29;20384;-72
2021/06/12 04:31:48;;;;;;;9.00;7.75;;;;;;;;;;4933384;29;20055;-71
2021/06/12 04:34:14;;;;;;;8.55;5.57;;;;;;;;;;4933339;29;20067;-73
2021/06/12 04:36:40;;;;;;;6.38;4.22;;;;;;;;;;4917632;29;20043;-73
2021/06/12 04:39:07;;;;;;;8.00;4.38;;;;;;;;;;4937263;29;20507;-72
2021/06/12 04:41:33;;;;;;;7.50;4.07;;;;;;;;;;4919272;29;20052;-73
2021/06/12 04:43:59;;;;;;;6.45;4.18;;;;;;;;;;4937234;29;20399;-72
2021/06/12 04:46:25;;;;;;;6.78;4.30;;;;;;;;;;4919761;29;20453;-72
2021/06/12 04:48:51;;;;;;;6.40;4.03;;;;;;;;;;4937075;29;20024;-72
2021/06/12 04:51:17;;;;;;;7.18;4.40;;;;;;;;;;4937079;29;20028;-72
2021/06/12 04:53:43;;;;;;;5.25;4.00;;;;;;;;;;4919972;29;20491;-72
2021/06/12 04:56:09;;;;;;;6.35;4.00;;;;;;;;;;4936805;29;20031;-72
2021/06/12 04:58:35;;;;;;;5.80;4.00;;;;;;;;;;4936977;29;20023;-73
2021/06/12 05:01:01;;;;;;;7.32;3.50;;;;;;;;;;4936671;29;20081;-72
2021/06/12 05:03:27;;;;;;;5.75;4.05;;;;;;;;;;4936881;29;20488;-72
2021/06/12 05:05:54;;;;;;;9.88;4.07;;;;;;;;;;4936408;29;20551;-72
2021/06/12 05:08:20;;;;;;;6.50;4.07;;;;;;;;;;4936732;29;20495;-71
2021/06/12 05:10:46;;;;;;;7.45;4.05;;;;;;;;;;4936321;29;20106;-73
2021/06/12 05:13:12;;;;;;;5.78;4.07;;;;;;;;;;4936479;29;20031;-72
2021/06/12 05:15:38;;;;;;;8.35;4.45;;;;;;;;;;4936221;29;20028;-74
2021/06/12 05:18:06;;;;;;;5.20;4.00;;;;;;;;;;4936434;29;20035;-73
2021/06/12 05:20:35;;;;;;;7.05;4.07;;;;;;;;;;4936304;29;20028;-73
2021/06/12 05:23:01;;;;;;;6.45;4.20;;;;;;;;;;4936250;29;20107;-73
2021/06/12 05:25:27;;;;;;;6.25;3.60;;;;;;;;;;4936583;29;20027;-73
2021/06/12 05:27:53;;;;;;;7.68;3.88;;;;;;;;;;4936306;29;20460;-74
2021/06/12 05:30:19;;;;;;;4.70;3.45;;;;;;;;;;4919443;29;20452;-72
2021/06/12 05:32:46;;;;;;;5.38;3.47;;;;;;;;;;4936377;29;20091;-74
2021/06/12 05:35:12;;;;;;;6.20;3.75;;;;;;;;;;4936110;29;20035;-73
2021/06/12 05:37:39;;;;;;;8.18;3.75;;;;;;;;;;4935887;29;20040;-73
2021/06/12 05:40:06;;;;;;;5.22;3.53;;;;;;;;;;4936207;29;20036;-74
2021/06/12 05:42:32;;;;;;;5.85;4.10;;;;;;;;;;4936262;29;20461;-68
2021/06/12 05:44:58;;;;;;;6.32;3.88;;;;;;;;;;4936098;29;20023;-65
2021/06/12 05:47:24;;;;;;;8.02;4.03;;;;;;;;;;4935829;29;20032;-64
2021/06/12 05:49:50;;;;;;;9.13;4.53;;;;;;;;;;4937552;29;20038;-66
2021/06/12 05:52:17;;;;;;;4.45;3.90;;;;;;;;;;4943557;29;20039;-67
2021/06/12 05:54:43;;;;;;;8.57;4.38;;;;;;;;;;4945114;29;20062;-64
2021/06/12 05:57:09;;;;;;;7.80;4.75;;;;;;;;;;4945039;29;20032;-66
2021/06/12 05:59:35;;;;;;;6.63;4.22;;;;;;;;;;4942924;29;20170;-67
2021/06/12 06:02:01;;;;;;;9.07;3.97;;;;;;;;;;4944592;29;20054;-66
2021/06/12 06:04:27;;;;;;;7.07;4.40;;;;;;;;;;4944530;29;20040;-67
2021/06/12 06:06:53;;;;;;;7.22;4.13;;;;;;;;;;4942898;29;20080;-62
2021/06/12 06:09:19;;;;;;;6.28;3.92;;;;;;;;;;4944372;29;20078;-65
2021/06/12 06:11:45;;;;;;;6.07;3.92;;;;;;;;;;4944224;29;20031;-64
2021/06/12 06:14:11;;;;;;;5.35;3.90;;;;;;;;;;4942467;29;20028;-65
2021/06/12 06:16:37;;;;;;;5.63;4.28;;;;;;;;;;4944464;29;20031;-67
2021/06/12 06:19:03;;;;;;;7.47;4.32;;;;;;;;;;4943565;29;20106;-65
2021/06/12 06:21:29;;;;;;;6.40;4.30;;;;;;;;;;4942708;29;20039;-66
2021/06/12 06:23:55;;;;;;;6.97;4.03;;;;;;;;;;4948329;29;20488;-65
2021/06/12 06:26:23;;;;;;;12.40;4.22;;;;;;;;;;4945288;29;20070;-69
2021/06/12 06:28:49;;;;;;;7.20;4.28;;;;;;;;;;4934962;29;20030;-70
2021/06/12 06:31:15;;;;;;;11.13;4.70;;;;;;;;;;4939469;29;20098;-64
2021/06/12 06:33:41;;;;;;;7.93;4.85;;;;;;;;;;4942811;29;20472;-64
2021/06/12 06:36:08;;;;;;;10.85;4.85;;;;;;;;;;4940790;29;20039;-61
2021/06/12 06:38:34;;;;;;;5.78;4.38;;;;;;;;;;4944240;29;20019;-63
2021/06/12 06:41:00;;;;;;;9.73;4.57;;;;;;;;;;4942176;29;20122;-61
2021/06/12 06:43:26;;;;;;;10.10;4.45;;;;;;;;;;4943009;29;20064;-66
2021/06/12 06:45:52;;;;;;;7.65;5.03;;;;;;;;;;4944268;29;20113;-63
2021/06/12 06:48:18;;;;;;;7.88;4.50;;;;;;;;;;4950821;29;20035;-64
2021/06/12 06:50:45;;;;;;;7.57;3.83;;;;;;;;;;4947395;29;20036;-71
2021/06/12 06:53:11;;;;;;;8.35;4.60;;;;;;;;;;4940692;29;20039;-74
2021/06/12 06:55:38;;;;;;;7.82;4.20;;;;;;;;;;4934775;29;20032;-71
2021/06/12 06:58:04;;;;;;;6.97;4.60;;;;;;;;;;4934604;29;20023;-72
2021/06/12 07:00:34;;;;;;;6.40;4.45;;;;;;;;;;4934274;29;20024;-69
2021/06/12 07:03:00;;;;;;;8.05;4.30;;;;;;;;;;4934612;29;20443;-72
2021/06/12 07:05:27;;;;;;;7.18;4.65;;;;;;;;;;4934248;29;20044;-71
2021/06/12 07:07:53;;;;;;;6.85;4.63;;;;;;;;;;4934450;29;20059;-70
2021/06/12 07:10:19;;;;;;;14.07;8.60;;;;;;;;;;4934186;29;20075;-71
2021/06/12 07:12:45;;;;;;;13.25;7.95;;;;;;;;;;4934352;29;20530;-71
2021/06/12 07:15:12;;;;;;;12.45;5.47;;;;;;;;;;4934225;29;20024;-71
2021/06/12 07:17:38;;;;;;;6.82;4.55;;;;;;;;;;4934047;29;20067;-71
2021/06/12 07:20:05;;;;;;;9.00;4.60;;;;;;;;;;4932868;29;20498;-71
2021/06/12 07:22:32;;;;;;;6.47;5.20;;;;;;;;;;4933470;29;20086;-71
2021/06/12 07:24:58;;;;;;;8.32;5.30;;;;;;;;;;4934357;29;20116;-71
2021/06/12 07:27:24;;;;;;;7.88;4.60;;;;;;;;;;4933999;29;20034;-72
2021/06/12 07:29:50;;;;;;;9.43;5.60;;;;;;;;;;4932925;29;20028;-71
2021/06/12 07:32:16;;;;;;;8.90;5.10;;;;;;;;;;4934048;29;20028;-71
2021/06/12 07:34:42;;;;;;;7.03;4.63;;;;;;;;;;4933650;29;20451;-71
2021/06/12 07:37:08;;;;;;;8.88;4.82;;;;;;;;;;4934040;29;20024;-71
2021/06/12 07:39:34;;;;;;;8.43;4.43;;;;;;;;;;4916987;29;20035;-71
2021/06/12 07:42:00;;;;;;;12.68;4.68;;;;;;;;;;4933405;29;20043;-72
2021/06/12 07:44:26;;;;;;;6.07;4.35;;;;;;;;;;4933840;29;20027;-72
2021/06/12 07:46:52;;;;;;;7.78;4.72;;;;;;;;;;4933742;29;20508;-71
2021/06/12 07:49:18;;;;;;;7.72;4.60;;;;;;;;;;4933548;29;20067;-72
2021/06/12 07:51:45;;;;;;;7.35;4.80;;;;;;;;;;4934028;29;20382;-71
2021/06/12 07:54:11;;;;;;;7.68;4.50;;;;;;;;;;4931229;29;20034;-75
2021/06/12 07:56:37;;;;;;;8.90;4.43;;;;;;;;;;4929542;29;20031;-74
2021/06/12 07:59:04;;;;;;;10.43;4.35;;;;;;;;;;4928797;29;20020;-73
2021/06/12 08:01:30;;;;;;;7.57;4.50;;;;;;;;;;4929670;29;20036;-70
2021/06/12 08:03:57;;;;;;;9.52;5.00;;;;;;;;;;4929723;29;20027;-74
2021/06/12 08:06:23;;;;;;;7.40;4.55;;;;;;;;;;4933398;29;20523;-73
2021/06/12 08:08:49;;;;;;;8.88;4.97;;;;;;;;;;4933703;29;20054;-74
2021/06/12 08:11:15;;;;;;;13.10;6.03;;;;;;;;;;4934284;29;20473;-74
2021/06/12 08:13:41;;;;;;;13.30;5.03;;;;;;;;;;4937183;29;20055;-71
2021/06/12 08:16:08;;;;;;;7.10;5.13;;;;;;;;;;4937486;29;20023;-74
2021/06/12 08:18:35;;;;;;;7.35;4.82;;;;;;;;;;4937439;29;20114;-74
2021/06/12 08:21:01;;;;;;;9.93;5.05;;;;;;;;;;4937227;29;20024;-73
2021/06/12 08:23:27;;;;;;;10.52;4.82;;;;;;;;;;4937630;29;20039;-72
2021/06/12 08:25:54;;;;;;;7.40;4.40;;;;;;;;;;4937207;29;20116;-72
2021/06/12 08:28:20;;;;;;;8.35;4.57;;;;;;;;;;4936877;29;20041;-73
2021/06/12 08:30:46;;;;;;;7.15;4.13;;;;;;;;;;4936893;29;20087;-73
2021/06/12 08:33:12;;;;;;;8.63;4.65;;;;;;;;;;4937032;29;20032;-73
2021/06/12 08:35:39;;;;;;;10.10;4.50;;;;;;;;;;4937260;29;20035;-73
2021/06/12 08:38:06;;;;;;;9.52;4.20;;;;;;;;;;4937099;29;20031;-72
2021/06/12 08:40:32;;;;;;;9.30;5.05;;;;;;;;;;4937143;29;20429;-71
2021/06/12 08:42:58;;;;;;;12.70;5.35;;;;;;;;;;4935437;29;20536;-72
2021/06/12 08:45:28;;;;;;;9.35;4.75;;;;;;;;;;4934985;29;20039;-73
2021/06/12 08:47:55;;;;;;;11.57;6.38;;;;;;;;;;4936317;29;20035;-72
2021/06/12 08:50:23;;;;;;;9.18;5.18;;;;;;;;;;4936832;29;20027;-71
2021/06/12 08:52:50;;;;;;;7.32;4.63;;;;;;;;;;4937039;29;20480;-73
2021/06/12 08:55:17;;;;;;;9.20;4.50;;;;;;;;;;4937167;29;20074;-73
2021/06/12 08:57:43;;;;;;;7.50;4.28;;;;;;;;;;4937106;29;20032;-72
2021/06/12 09:00:10;;;;;;;7.55;4.38;;;;;;;;;;4936684;29;20036;-73
2021/06/12 09:02:55;;;;;;;5.78;3.90;;;;;;;;;;4936866;29;20114;-71
2021/06/12 09:05:24;;;;;;;5.57;4.70;;;;;;;;;;4936066;29;20050;-74
2021/06/12 09:08:05;;;;;;;5.50;3.95;;;;;;;;;;4936459;29;20031;-73
2021/06/12 09:10:31;;;;;;;5.15;3.65;;;;;;;;;;4936476;29;20028;-73
2021/06/12 09:12:57;;;;;;;6.10;4.10;;;;;;;;;;4936570;29;20107;-71
2021/06/12 09:15:23;;;;;;;6.22;3.90;;;;;;;;;;4936466;29;20083;-73
2021/06/12 09:17:50;;;;;;;5.13;4.22;;;;;;;;;;4936564;29;20417;-71
2021/06/12 09:20:18;;;;;;;7.00;3.53;;;;;;;;;;4936204;29;20031;-70
2021/06/12 09:22:44;;;;;;;5.05;3.30;;;;;;;;;;4935052;29;20563;-71
2021/06/12 09:25:10;;;;;;;6.18;3.42;;;;;;;;;;4935885;29;20024;-71
2021/06/12 09:27:36;;;;;;;5.40;3.58;;;;;;;;;;4936269;29;20024;-71
2021/06/12 09:30:07;;;;;;;5.63;3.33;;;;;;;;;;4936271;29;20472;-72
2021/06/12 09:32:43;;;;;;;5.57;3.42;;;;;;;;;;4936219;29;20062;-71
2021/06/12 09:35:09;;;;;;;6.93;3.88;;;;;;;;;;4935872;29;20162;-72
2021/06/12 09:37:36;;;;;;;5.30;3.28;;;;;;;;;;4936228;29;20031;-71
2021/06/12 09:40:05;;;;;;;6.13;3.40;;;;;;;;;;4936132;29;20028;-71
2021/06/12 09:42:49;;;;;;;6.10;3.53;;;;;;;;;;4935993;29;20396;-73
2021/06/12 09:45:26;;;;;;;7.45;3.50;;;;;;;;;;4935254;29;20031;-71
2021/06/12 09:48:06;;;;;;;6.82;3.65;;;;;;;;;;4936054;29;20087;-71
2021/06/12 09:50:32;;;;;;;5.25;3.60;;;;;;;;;;4935584;29;20027;-71
2021/06/12 09:52:58;;;;;;;6.43;3.88;;;;;;;;;;4936056;29;20351;-70
2021/06/12 09:55:29;;;;;;;5.85;3.75;;;;;;;;;;4935772;29;20098;-71
2021/06/12 09:57:56;;;;;;;5.38;3.75;;;;;;;;;;4918060;29;20034;-71
2021/06/12 10:00:39;;;;;;;6.82;3.50;;;;;;;;;;4935141;29;20035;-71
2021/06/12 10:03:16;;;;;;;6.18;3.35;;;;;;;;;;4935594;29;20031;-73
2021/06/12 10:05:43;;;;;;;6.18;3.38;;;;;;;;;;4935477;29;20119;-71
2021/06/12 10:08:09;;;;;;;6.35;4.03;;;;;;;;;;4935367;29;20032;-72
2021/06/12 10:10:35;;;;;;;6.45;3.60;;;;;;;;;;4935329;29;20027;-71
2021/06/12 10:13:04;;;;;;;8.73;3.65;;;;;;;;;;4935538;29;20028;-73
2021/06/12 10:15:31;;;;;;;5.35;3.80;;;;;;;;;;4935083;29;20480;-73
2021/06/12 10:17:57;;;;;;;5.03;3.90;;;;;;;;;;4935577;29;20024;-71
2021/06/12 10:20:24;;;;;;;5.80;3.33;;;;;;;;;;4935307;29;20039;-74
2021/06/12 10:22:51;;;;;;;4.22;3.17;;;;;;;;;;4917887;29;20401;-73
2021/06/12 10:25:19;;;;;;;3.78;3.30;;;;;;;;;;4918110;29;20362;-74
2021/06/12 10:27:45;;;;;;;4.45;3.22;;;;;;;;;;4934985;29;20031;-74
2021/06/12 10:30:13;;;;;;;8.63;3.78;;;;;;;;;;4934985;29;20120;-73
2021/06/12 10:32:49;;;;;;;4.50;3.38;;;;;;;;;;4935039;29;20090;-73
2021/06/12 10:35:16;;;;;;;7.18;3.40;;;;;;;;;;4934590;29;20436;-72
2021/06/12 10:37:58;;;;;;;5.72;3.97;;;;;;;;;;4934223;29;20539;-71
2021/06/12 10:40:42;;;;;;;7.15;3.83;;;;;;;;;;4931283;29;20038;-73
2021/06/12 10:43:11;;;;;;;5.35;3.50;;;;;;;;;;4930049;29;20040;-71
2021/06/12 10:45:37;;;;;;;7.13;3.50;;;;;;;;;;4931251;29;20058;-74
2021/06/12 10:48:04;;;;;;;5.03;3.35;;;;;;;;;;4929890;29;20618;-74
2021/06/12 10:50:31;;;;;;;5.85;3.65;;;;;;;;;;4916824;29;20046;-74
2021/06/12 10:53:20;;;;;;;7.22;3.38;;;;;;;;;;4934684;29;20028;-73
2021/06/12 10:55:50;;;;;;;7.30;3.45;;;;;;;;;;4924670;29;20047;-73
2021/06/12 10:58:32;;;;;;;6.03;3.63;;;;;;;;;;4934591;29;20158;-73
2021/06/12 11:01:17;;;;;;;7.68;3.55;;;;;;;;;;4934253;29;20118;-73
2021/06/12 11:06:35;;;;;;;4.22;3.20;;;;;;;;;;4930727;29;20079;-73
2021/06/12 11:09:14;;;;;;;5.07;3.25;;;;;;;;;;4930574;29;20027;-73
2021/06/12 11:11:40;;;;;;;3.80;3.40;;;;;;;;;;4930195;29;20036;-73
2021/06/12 11:14:24;;;;;;;6.70;3.90;;;;;;;;;;4930102;29;20579;-70
2021/06/12 11:17:09;;;;;;;5.45;3.55;;;;;;;;;;4931540;29;20028;-74
2021/06/12 11:19:35;;;;;;;4.65;3.38;;;;;;;;;;4933865;29;20024;-73
2021/06/12 11:22:19;;;;;;;6.30;3.25;;;;;;;;;;4934238;29;20039;-71
2021/06/12 11:24:46;;;;;;;4.25;2.95;;;;;;;;;;4934157;29;20039;-72
2021/06/12 11:27:26;;;;;;;4.78;2.92;;;;;;;;;;4933851;29;20020;-71
2021/06/12 11:30:11;;;;;;;5.63;3.22;;;;;;;;;;4933949;29;20068;-72
2021/06/12 11:32:37;;;;;;;4.22;3.15;;;;;;;;;;4916526;29;20034;-73
2021/06/12 11:35:04;;;;;;;4.47;3.20;;;;;;;;;;4933704;29;20040;-73
2021/06/12 11:37:30;;;;;;;3.88;3.10;;;;;;;;;;4934266;29;20112;-72
2021/06/12 11:39:58;;;;;;;6.00;2.90;;;;;;;;;;4934015;29;20032;-71
2021/06/12 11:42:47;;;;;;;4.25;3.10;;;;;;;;;;4933612;29;20051;-73
2021/06/12 11:45:24;;;;;;;3.40;2.80;;;;;;;;;;4933742;29;20027;-72
2021/06/12 11:47:51;;;;;;;4.57;2.88;;;;;;;;;;4933531;29;20023;-70
2021/06/12 11:50:24;;;;;;;3.88;2.83;;;;;;;;;;4933544;29;20032;-72
2021/06/12 11:52:50;;;;;;;6.07;2.83;;;;;;;;;;4933893;29;20068;-72
2021/06/12 11:55:18;;;;;;;4.45;3.17;;;;;;;;;;4933870;29;20169;-73
2021/06/12 11:57:45;;;;;;;7.15;3.10;;;;;;;;;;4933525;29;20028;-72
2021/06/12 12:00:23;;;;;;;4.05;3.03;;;;;;;;;;4933827;29;20595;-71
2021/06/12 12:02:59;;;;;;;6.88;3.40;;;;;;;;;;4933674;29;20040;-73
2021/06/12 12:05:30;;;;;;;10.40;2.80;;;;;;;;;;4933261;29;20075;-73
2021/06/12 12:07:56;;;;;;;3.60;2.50;;;;;;;;;;4933792;29;20027;-72
2021/06/12 12:10:26;;;;;;;6.85;3.00;;;;;;;;;;4933760;29;20385;-71
2021/06/12 12:12:53;;;;;;;6.93;3.00;;;;;;;;;;4933659;29;20066;-71
2021/06/12 12:15:48;;;;;;;4.22;3.33;;;;;;;;;;4933782;29;20035;-71
2021/06/12 12:18:14;;;;;;;5.72;2.85;;;;;;;;;;4856274;29;20053;-71
2021/06/12 12:20:45;;;;;;;8.68;2.90;;;;;;;;;;4856130;29;20577;-72
2021/06/12 12:23:27;;;;;;;6.15;3.17;;;;;;;;;;4855974;29;20053;-72
2021/06/12 12:26:17;;;;;;;6.07;2.72;;;;;;;;;;4856208;29;20843;-72
2021/06/12 12:29:01;;;;;;;5.32;3.40;;;;;;;;;;4855781;29;20128;-71
2021/06/12 12:31:27;;;;;;;8.35;3.00;;;;;;;;;;4855837;29;20037;-71
2021/06/12 12:33:54;;;;;;;5.47;2.60;;;;;;;;;;4855667;29;20037;-72
2021/06/12 12:36:21;;;;;;;5.90;3.17;;;;;;;;;;4856281;29;20049;-71
2021/06/12 12:38:54;;;;;;;5.13;2.95;;;;;;;;;;4856278;29;20041;-71
2021/06/12 12:41:20;;;;;;;5.57;2.78;;;;;;;;;;4855957;29;20049;-71
2021/06/12 12:43:46;;;;;;;4.50;2.80;;;;;;;;;;4855919;29;20029;-73
2021/06/12 12:46:12;;;;;;;5.15;2.80;;;;;;;;;;4855990;29;20044;-72
2021/06/12 12:48:41;;;;;;;4.07;2.60;;;;;;;;;;4855417;29;20041;-72
2021/06/12 12:51:08;;;;;;;4.95;2.70;;;;;;;;;;4855695;29;20034;-71
2021/06/12 12:53:39;;;;;;;4.18;2.50;;;;;;;;;;4860658;29;20049;-71
2021/06/12 12:56:09;;;;;;;3.23;2.33;;;;;;;;;;4933503;29;20118;-71
2021/06/12 12:58:36;;;;;;;2.50;2.03;;;;;;;;;;4935707;29;20054;-71
2021/06/12 13:01:08;;;;;;;2.97;2.10;;;;;;;;;;4936555;29;20027;-71
2021/06/12 13:03:42;;;;;;;3.78;2.60;;;;;;;;;;4936714;29;20124;-72
2021/06/12 13:06:27;;;;;;;10.73;2.58;;;;;;;;;;4936250;29;20055;-71
2021/06/12 13:09:05;;;;;;;5.22;2.72;;;;;;;;;;4936710;29;20093;-71
2021/06/12 13:11:40;;;;;;;4.88;2.85;;;;;;;;;;4936307;29;20031;-71
2021/06/12 13:14:06;;;;;;;6.05;2.97;;;;;;;;;;4936568;29;20408;-71
2021/06/12 13:16:32;;;;;;;4.43;3.05;;;;;;;;;;4936491;29;20098;-72
2021/06/12 13:19:12;;;;;;;7.57;2.80;;;;;;;;;;4936278;29;20440;-71
2021/06/12 13:21:48;;;;;;;5.18;2.72;;;;;;;;;;4936125;29;20122;-72
2021/06/12 13:24:14;;;;;;;5.95;2.88;;;;;;;;;;4936393;29;20024;-71
2021/06/12 13:26:41;;;;;;;5.72;3.22;;;;;;;;;;4936400;29;20384;-71
2021/06/12 13:29:17;;;;;;;6.63;3.00;;;;;;;;;;4935534;29;20062;-72
2021/06/12 13:31:46;;;;;;;5.22;2.75;;;;;;;;;;4934950;29;20059;-72
2021/06/12 13:34:22;;;;;;;5.47;3.42;;;;;;;;;;4935987;29;20043;-72
2021/06/12 13:36:52;;;;;;;4.25;2.88;;;;;;;;;;4936418;29;20054;-72
2021/06/12 13:39:32;;;;;;;5.75;3.03;;;;;;;;;;4936057;29;20028;-72
2021/06/12 13:42:07;;;;;;;5.13;3.60;;;;;;;;;;4936185;29;20050;-73
2021/06/12 13:44:33;;;;;;;4.55;3.03;;;;;;;;;;4935990;29;20028;-73
2021/06/12 13:46:59;;;;;;;6.93;3.40;;;;;;;;;;4936085;29;20028;-70
2021/06/12 13:49:25;;;;;;;6.15;2.97;;;;;;;;;;4936189;29;20115;-71
2021/06/12 13:51:51;;;;;;;4.93;3.20;;;;;;;;;;4935899;29;20090;-72
2021/06/12 13:54:18;;;;;;;5.15;2.88;;;;;;;;;;4936109;29;20055;-71
2021/06/12 13:56:44;;;;;;;6.15;3.35;;;;;;;;;;4936062;29;20467;-73
2021/06/12 13:59:11;;;;;;;4.22;3.13;;;;;;;;;;4935673;29;20035;-73
2021/06/12 14:01:37;;;;;;;4.60;3.20;;;;;;;;;;4935713;29;20028;-73
2021/06/12 14:04:04;;;;;;;3.90;2.90;;;;;;;;;;4935428;29;20024;-73
2021/06/12 14:06:33;;;;;;;4.00;3.03;;;;;;;;;;4935351;29;20900;-72
2021/06/12 14:08:59;;;;;;;4.53;2.83;;;;;;;;;;4934714;29;20028;-75
2021/06/12 14:11:25;;;;;;;3.65;2.88;;;;;;;;;;4934547;29;20019;-72
2021/06/12 14:13:52;;;;;;;4.32;3.17;;;;;;;;;;4930232;29;20407;-74
2021/06/12 14:16:18;;;;;;;3.90;3.00;;;;;;;;;;4929285;29;20111;-74
2021/06/12 14:18:44;;;;;;;4.40;2.97;;;;;;;;;;4934049;29;20035;-73
2021/06/12 14:21:10;;;;;;;4.15;3.03;;;;;;;;;;4934969;29;20035;-73
2021/06/12 14:23:36;;;;;;;3.38;2.80;;;;;;;;;;4935182;29;20039;-74
2021/06/12 14:26:04;;;;;;;4.75;3.30;;;;;;;;;;4935223;29;20032;-74
2021/06/12 14:28:31;;;;;;;4.32;2.90;;;;;;;;;;4935062;29;20031;-72
2021/06/12 14:31:01;;;;;;;4.22;3.00;;;;;;;;;;4935130;29;20098;-71
2021/06/12 14:33:28;;;;;;;4.90;2.97;;;;;;;;;;4934895;29;20020;-74
2021/06/12 14:35:54;;;;;;;5.25;2.72;;;;;;;;;;4934523;29;20076;-73
2021/06/12 14:38:20;;;;;;;4.13;2.63;;;;;;;;;;4934897;29;20114;-73
2021/06/12 14:40:46;;;;;;;4.85;3.03;;;;;;;;;;4934962;29;20020;-73
2021/06/12 14:43:12;;;;;;;5.40;3.15;;;;;;;;;;4934432;29;20040;-71
2021/06/12 14:45:38;;;;;;;5.20;2.70;;;;;;;;;;4934764;29;20047;-73
2021/06/12 14:48:04;;;;;;;4.32;3.05;;;;;;;;;;4934607;29;20765;-74
2021/06/12 14:50:30;;;;;;;6.53;2.95;;;;;;;;;;4934507;29;20384;-73